sensor_id;sensor_type;location;lat;lon;timestamp;P1;durP1;ratioP1;P2;durP2;ratioP2
13114;SDS011;6623;52.120;8.660;2024-01-15T00:02:07;1.60;;;1.30;;
13114;SDS011;6623;52.120;8.660;2024-01-15T00:04:37;1.30;;;1.10;;
13114;SDS011;6623;52.120;8.660;2024-01-15T00:07:03;2.00;;;1.33;;
13114;SDS011;6623;52.120;8.660;2024-01-15T00:09:29;1.40;;;1.20;;
13114;SDS011;6623;52.120;8.660;2024-01-15T00:11:54;0.90;;;0.90;;
13114;SDS011;6623;52.120;8.660;2024-01-15T00:14:20;1.10;;;1.00;;
13114;SDS011;6623;52.120;8.660;2024-01-15T00:16:46;1.57;;;1.20;;
13114;SDS011;6623;52.120;8.660;2024-01-15T00:19:13;1.30;;;1.20;;
13114;SDS011;6623;52.120;8.660;2024-01-15T00:21:39;1.30;;;1.20;;
13114;SDS011;6623;52.120;8.660;2024-01-15T00:24:04;1.50;;;1.10;;
13114;SDS011;6623;52.120;8.660;2024-01-15T00:26:30;1.10;;;1.00;;
13114;SDS011;6623;52.120;8.660;2024-01-15T00:28:55;1.20;;;1.10;;
13114;SDS011;6623;52.120;8.660;2024-01-15T00:31:21;1.20;;;1.10;;
13114;SDS011;6623;52.120;8.660;2024-01-15T00:33:46;1.47;;;1.10;;
13114;SDS011;6623;52.120;8.660;2024-01-15T00:36:12;1.33;;;1.17;;
13114;SDS011;6623;52.120;8.660;2024-01-15T00:38:39;1.30;;;1.20;;
13114;SDS011;6623;52.120;8.660;2024-01-15T00:41:04;1.30;;;1.20;;
13114;SDS011;6623;52.120;8.660;2024-01-15T00:43:30;1.30;;;1.20;;
13114;SDS011;6623;52.120;8.660;2024-01-15T00:45:55;1.40;;;1.20;;
13114;SDS011;6623;52.120;8.660;2024-01-15T00:48:21;1.27;;;1.00;;
13114;SDS011;6623;52.120;8.660;2024-01-15T00:50:46;1.10;;;1.00;;
13114;SDS011;6623;52.120;8.660;2024-01-15T00:53:12;1.10;;;1.00;;
13114;SDS011;6623;52.120;8.660;2024-01-15T00:55:37;1.30;;;1.20;;
13114;SDS011;6623;52.120;8.660;2024-01-15T00:58:03;1.17;;;1.07;;
13114;SDS011;6623;52.120;8.660;2024-01-15T01:00:29;1.07;;;0.97;;
13114;SDS011;6623;52.120;8.660;2024-01-15T01:02:54;1.33;;;1.10;;
13114;SDS011;6623;52.120;8.660;2024-01-15T01:05:20;1.10;;;1.00;;
13114;SDS011;6623;52.120;8.660;2024-01-15T01:07:45;1.20;;;1.00;;
13114;SDS011;6623;52.120;8.660;2024-01-15T01:10:11;1.10;;;1.00;;
13114;SDS011;6623;52.120;8.660;2024-01-15T01:12:37;1.30;;;1.20;;
13114;SDS011;6623;52.120;8.660;2024-01-15T01:15:02;1.10;;;0.93;;
13114;SDS011;6623;52.120;8.660;2024-01-15T01:17:29;1.30;;;1.10;;
13114;SDS011;6623;52.120;8.660;2024-01-15T01:19:55;1.00;;;0.90;;
13114;SDS011;6623;52.120;8.660;2024-01-15T01:22:21;1.57;;;1.10;;
13114;SDS011;6623;52.120;8.660;2024-01-15T01:24:46;1.03;;;0.93;;
13114;SDS011;6623;52.120;8.660;2024-01-15T01:27:12;1.10;;;1.00;;
13114;SDS011;6623;52.120;8.660;2024-01-15T01:29:37;1.20;;;1.00;;
13114;SDS011;6623;52.120;8.660;2024-01-15T01:32:03;1.30;;;1.10;;
13114;SDS011;6623;52.120;8.660;2024-01-15T01:34:28;1.10;;;1.00;;
13114;SDS011;6623;52.120;8.660;2024-01-15T01:36:55;1.20;;;1.10;;
13114;SDS011;6623;52.120;8.660;2024-01-15T01:39:20;1.20;;;1.10;;
13114;SDS011;6623;52.120;8.660;2024-01-15T01:41:46;1.30;;;0.90;;
13114;SDS011;6623;52.120;8.660;2024-01-15T01:44:11;1.20;;;1.10;;
13114;SDS011;6623;52.120;8.660;2024-01-15T01:46:37;0.90;;;0.90;;
13114;SDS011;6623;52.120;8.660;2024-01-15T01:49:06;1.10;;;1.00;;
13114;SDS011;6623;52.120;8.660;2024-01-15T01:51:34;1.37;;;1.20;;
13114;SDS011;6623;52.120;8.660;2024-01-15T01:54:01;1.10;;;1.00;;
13114;SDS011;6623;52.120;8.660;2024-01-15T01:56:26;1.10;;;1.00;;
13114;SDS011;6623;52.120;8.660;2024-01-15T01:58:52;1.20;;;1.10;;
13114;SDS011;6623;52.120;8.660;2024-01-15T02:01:18;1.23;;;1.10;;
13114;SDS011;6623;52.120;8.660;2024-01-15T02:03:44;1.73;;;1.10;;
13114;SDS011;6623;52.120;8.660;2024-01-15T02:06:10;1.00;;;0.90;;
13114;SDS011;6623;52.120;8.660;2024-01-15T02:08:36;1.20;;;0.90;;
13114;SDS011;6623;52.120;8.660;2024-01-15T02:11:02;1.20;;;1.10;;
13114;SDS011;6623;52.120;8.660;2024-01-15T02:13:27;1.13;;;1.03;;
13114;SDS011;6623;52.120;8.660;2024-01-15T02:15:53;1.10;;;1.00;;
13114;SDS011;6623;52.120;8.660;2024-01-15T02:18:19;1.07;;;0.97;;
13114;SDS011;6623;52.120;8.660;2024-01-15T02:20:45;1.37;;;1.10;;
13114;SDS011;6623;52.120;8.660;2024-01-15T02:25:37;1.10;;;1.00;;
13114;SDS011;6623;52.120;8.660;2024-01-15T02:28:04;1.00;;;0.90;;
13114;SDS011;6623;52.120;8.660;2024-01-15T02:30:31;1.20;;;1.10;;
13114;SDS011;6623;52.120;8.660;2024-01-15T02:32:56;1.00;;;0.90;;
13114;SDS011;6623;52.120;8.660;2024-01-15T02:35:22;1.00;;;0.90;;
13114;SDS011;6623;52.120;8.660;2024-01-15T02:37:47;1.37;;;1.10;;
13114;SDS011;6623;52.120;8.660;2024-01-15T02:40:13;0.80;;;0.80;;
13114;SDS011;6623;52.120;8.660;2024-01-15T02:42:38;1.20;;;0.93;;
13114;SDS011;6623;52.120;8.660;2024-01-15T02:45:04;1.20;;;1.10;;
13114;SDS011;6623;52.120;8.660;2024-01-15T02:47:30;0.90;;;0.80;;
13114;SDS011;6623;52.120;8.660;2024-01-15T02:49:55;1.00;;;0.90;;
13114;SDS011;6623;52.120;8.660;2024-01-15T02:52:20;1.27;;;0.93;;
13114;SDS011;6623;52.120;8.660;2024-01-15T02:54:46;1.23;;;1.03;;
13114;SDS011;6623;52.120;8.660;2024-01-15T02:57:11;1.43;;;1.00;;
13114;SDS011;6623;52.120;8.660;2024-01-15T02:59:37;1.10;;;1.00;;
13114;SDS011;6623;52.120;8.660;2024-01-15T03:02:02;1.13;;;0.80;;
13114;SDS011;6623;52.120;8.660;2024-01-15T03:04:28;1.10;;;1.00;;
13114;SDS011;6623;52.120;8.660;2024-01-15T03:06:54;0.93;;;0.90;;
13114;SDS011;6623;52.120;8.660;2024-01-15T03:09:19;1.30;;;0.90;;
13114;SDS011;6623;52.120;8.660;2024-01-15T03:11:45;1.10;;;1.00;;
13114;SDS011;6623;52.120;8.660;2024-01-15T03:14:10;1.07;;;0.97;;
13114;SDS011;6623;52.120;8.660;2024-01-15T03:16:35;1.20;;;1.00;;
13114;SDS011;6623;52.120;8.660;2024-01-15T03:19:01;0.77;;;0.70;;
13114;SDS011;6623;52.120;8.660;2024-01-15T03:21:26;1.07;;;0.90;;
13114;SDS011;6623;52.120;8.660;2024-01-15T03:23:52;1.33;;;0.90;;
13114;SDS011;6623;52.120;8.660;2024-01-15T03:26:17;0.90;;;0.90;;
13114;SDS011;6623;52.120;8.660;2024-01-15T03:28:46;1.13;;;0.90;;
13114;SDS011;6623;52.120;8.660;2024-01-15T03:31:11;0.83;;;0.83;;
13114;SDS011;6623;52.120;8.660;2024-01-15T03:33:37;0.93;;;0.83;;
13114;SDS011;6623;52.120;8.660;2024-01-15T03:36:03;0.97;;;0.90;;
13114;SDS011;6623;52.120;8.660;2024-01-15T03:38:28;0.93;;;0.87;;
13114;SDS011;6623;52.120;8.660;2024-01-15T03:40:54;1.43;;;1.10;;
13114;SDS011;6623;52.120;8.660;2024-01-15T03:43:19;1.00;;;0.90;;
13114;SDS011;6623;52.120;8.660;2024-01-15T03:45:45;0.80;;;0.80;;
13114;SDS011;6623;52.120;8.660;2024-01-15T03:48:10;1.03;;;0.93;;
13114;SDS011;6623;52.120;8.660;2024-01-15T03:50:36;1.10;;;0.90;;
13114;SDS011;6623;52.120;8.660;2024-01-15T03:53:02;0.83;;;0.83;;
13114;SDS011;6623;52.120;8.660;2024-01-15T03:55:27;1.00;;;0.90;;
13114;SDS011;6623;52.120;8.660;2024-01-15T03:57:53;1.03;;;0.93;;
13114;SDS011;6623;52.120;8.660;2024-01-15T04:00:18;1.00;;;0.90;;
13114;SDS011;6623;52.120;8.660;2024-01-15T04:02:44;1.40;;;0.80;;
13114;SDS011;6623;52.120;8.660;2024-01-15T04:05:10;1.43;;;0.90;;
13114;SDS011;6623;52.120;8.660;2024-01-15T04:07:35;0.80;;;0.80;;
13114;SDS011;6623;52.120;8.660;2024-01-15T04:10:01;1.40;;;0.90;;
13114;SDS011;6623;52.120;8.660;2024-01-15T04:12:27;0.90;;;0.80;;
13114;SDS011;6623;52.120;8.660;2024-01-15T04:14:52;1.00;;;0.90;;
13114;SDS011;6623;52.120;8.660;2024-01-15T04:17:17;1.03;;;0.93;;
13114;SDS011;6623;52.120;8.660;2024-01-15T04:19:44;1.17;;;1.00;;
13114;SDS011;6623;52.120;8.660;2024-01-15T04:22:09;0.87;;;0.70;;
13114;SDS011;6623;52.120;8.660;2024-01-15T04:24:35;1.10;;;1.00;;
13114;SDS011;6623;52.120;8.660;2024-01-15T04:27:00;1.50;;;1.10;;
13114;SDS011;6623;52.120;8.660;2024-01-15T04:29:25;1.00;;;0.90;;
13114;SDS011;6623;52.120;8.660;2024-01-15T04:31:51;1.10;;;0.97;;
13114;SDS011;6623;52.120;8.660;2024-01-15T04:34:17;1.20;;;0.90;;
13114;SDS011;6623;52.120;8.660;2024-01-15T04:36:43;1.20;;;0.87;;
13114;SDS011;6623;52.120;8.660;2024-01-15T04:39:08;1.10;;;0.73;;
13114;SDS011;6623;52.120;8.660;2024-01-15T04:41:35;0.77;;;0.77;;
13114;SDS011;6623;52.120;8.660;2024-01-15T04:44:01;1.50;;;1.20;;
13114;SDS011;6623;52.120;8.660;2024-01-15T04:46:26;1.00;;;0.80;;
13114;SDS011;6623;52.120;8.660;2024-01-15T04:48:52;1.00;;;0.90;;
13114;SDS011;6623;52.120;8.660;2024-01-15T04:51:17;1.03;;;0.73;;
13114;SDS011;6623;52.120;8.660;2024-01-15T04:53:43;0.80;;;0.80;;
13114;SDS011;6623;52.120;8.660;2024-01-15T04:56:09;1.30;;;0.80;;
13114;SDS011;6623;52.120;8.660;2024-01-15T04:58:34;0.80;;;0.70;;
13114;SDS011;6623;52.120;8.660;2024-01-15T05:01:00;1.40;;;0.90;;
13114;SDS011;6623;52.120;8.660;2024-01-15T05:03:25;1.13;;;0.80;;
13114;SDS011;6623;52.120;8.660;2024-01-15T05:05:51;1.30;;;0.90;;
13114;SDS011;6623;52.120;8.660;2024-01-15T05:08:19;1.00;;;0.87;;
13114;SDS011;6623;52.120;8.660;2024-01-15T05:10:44;1.03;;;0.80;;
13114;SDS011;6623;52.120;8.660;2024-01-15T05:13:10;0.90;;;0.70;;
13114;SDS011;6623;52.120;8.660;2024-01-15T05:15:36;0.80;;;0.80;;
13114;SDS011;6623;52.120;8.660;2024-01-15T05:18:02;1.03;;;0.80;;
13114;SDS011;6623;52.120;8.660;2024-01-15T05:20:27;0.73;;;0.70;;
13114;SDS011;6623;52.120;8.660;2024-01-15T05:22:53;1.57;;;1.00;;
13114;SDS011;6623;52.120;8.660;2024-01-15T05:25:18;1.33;;;0.80;;
13114;SDS011;6623;52.120;8.660;2024-01-15T05:27:44;0.70;;;0.70;;
13114;SDS011;6623;52.120;8.660;2024-01-15T05:30:09;1.30;;;0.80;;
13114;SDS011;6623;52.120;8.660;2024-01-15T05:32:35;1.27;;;0.80;;
13114;SDS011;6623;52.120;8.660;2024-01-15T05:35:01;0.97;;;0.80;;
13114;SDS011;6623;52.120;8.660;2024-01-15T05:37:26;0.83;;;0.70;;
13114;SDS011;6623;52.120;8.660;2024-01-15T05:39:52;0.97;;;0.70;;
13114;SDS011;6623;52.120;8.660;2024-01-15T05:42:17;0.90;;;0.77;;
13114;SDS011;6623;52.120;8.660;2024-01-15T05:44:43;1.00;;;0.80;;
13114;SDS011;6623;52.120;8.660;2024-01-15T05:47:08;1.10;;;0.90;;
13114;SDS011;6623;52.120;8.660;2024-01-15T05:49:34;1.50;;;0.83;;
13114;SDS011;6623;52.120;8.660;2024-01-15T05:51:59;1.00;;;0.70;;
13114;SDS011;6623;52.120;8.660;2024-01-15T05:54:25;0.97;;;0.70;;
13114;SDS011;6623;52.120;8.660;2024-01-15T05:56:50;1.37;;;0.90;;
13114;SDS011;6623;52.120;8.660;2024-01-15T05:59:16;0.80;;;0.70;;
13114;SDS011;6623;52.120;8.660;2024-01-15T06:01:42;1.20;;;0.80;;
13114;SDS011;6623;52.120;8.660;2024-01-15T06:04:07;0.70;;;0.70;;
13114;SDS011;6623;52.120;8.660;2024-01-15T06:06:33;0.73;;;0.63;;
13114;SDS011;6623;52.120;8.660;2024-01-15T06:08:58;0.87;;;0.67;;
13114;SDS011;6623;52.120;8.660;2024-01-15T06:11:30;1.00;;;0.83;;
13114;SDS011;6623;52.120;8.660;2024-01-15T06:13:58;1.07;;;0.80;;
13114;SDS011;6623;52.120;8.660;2024-01-15T06:16:25;1.10;;;0.80;;
13114;SDS011;6623;52.120;8.660;2024-01-15T06:18:51;1.00;;;0.80;;
13114;SDS011;6623;52.120;8.660;2024-01-15T06:21:16;1.30;;;0.80;;
13114;SDS011;6623;52.120;8.660;2024-01-15T06:23:42;0.90;;;0.73;;
13114;SDS011;6623;52.120;8.660;2024-01-15T06:26:07;1.00;;;0.80;;
13114;SDS011;6623;52.120;8.660;2024-01-15T06:28:33;1.40;;;0.80;;
13114;SDS011;6623;52.120;8.660;2024-01-15T06:30:58;0.80;;;0.70;;
13114;SDS011;6623;52.120;8.660;2024-01-15T06:33:24;0.70;;;0.70;;
13114;SDS011;6623;52.120;8.660;2024-01-15T06:35:50;0.70;;;0.60;;
13114;SDS011;6623;52.120;8.660;2024-01-15T06:38:16;0.80;;;0.67;;
13114;SDS011;6623;52.120;8.660;2024-01-15T06:40:41;1.20;;;0.77;;
13114;SDS011;6623;52.120;8.660;2024-01-15T06:43:13;0.83;;;0.70;;
13114;SDS011;6623;52.120;8.660;2024-01-15T06:45:40;0.87;;;0.80;;
13114;SDS011;6623;52.120;8.660;2024-01-15T06:48:05;1.33;;;0.50;;
13114;SDS011;6623;52.120;8.660;2024-01-15T06:50:32;0.60;;;0.60;;
13114;SDS011;6623;52.120;8.660;2024-01-15T06:52:58;0.83;;;0.70;;
13114;SDS011;6623;52.120;8.660;2024-01-15T06:55:23;1.83;;;0.93;;
13114;SDS011;6623;52.120;8.660;2024-01-15T06:57:49;0.90;;;0.70;;
13114;SDS011;6623;52.120;8.660;2024-01-15T07:00:14;1.13;;;0.90;;
13114;SDS011;6623;52.120;8.660;2024-01-15T07:02:40;1.20;;;0.80;;
13114;SDS011;6623;52.120;8.660;2024-01-15T07:05:06;0.70;;;0.60;;
13114;SDS011;6623;52.120;8.660;2024-01-15T07:07:32;0.70;;;0.60;;
13114;SDS011;6623;52.120;8.660;2024-01-15T07:09:58;1.30;;;0.80;;
13114;SDS011;6623;52.120;8.660;2024-01-15T07:12:23;0.93;;;0.73;;
13114;SDS011;6623;52.120;8.660;2024-01-15T07:14:49;0.83;;;0.70;;
13114;SDS011;6623;52.120;8.660;2024-01-15T07:17:15;0.77;;;0.70;;
13114;SDS011;6623;52.120;8.660;2024-01-15T07:19:40;1.17;;;0.70;;
13114;SDS011;6623;52.120;8.660;2024-01-15T07:22:06;1.23;;;0.70;;
13114;SDS011;6623;52.120;8.660;2024-01-15T07:24:31;0.90;;;0.70;;
13114;SDS011;6623;52.120;8.660;2024-01-15T07:26:59;1.70;;;0.73;;
13114;SDS011;6623;52.120;8.660;2024-01-15T07:29:25;1.43;;;0.80;;
13114;SDS011;6623;52.120;8.660;2024-01-15T07:31:50;0.57;;;0.50;;
13114;SDS011;6623;52.120;8.660;2024-01-15T07:34:16;0.60;;;0.60;;
13114;SDS011;6623;52.120;8.660;2024-01-15T07:36:45;0.80;;;0.77;;
13114;SDS011;6623;52.120;8.660;2024-01-15T07:39:11;0.93;;;0.63;;
13114;SDS011;6623;52.120;8.660;2024-01-15T07:41:37;1.20;;;0.60;;
13114;SDS011;6623;52.120;8.660;2024-01-15T07:44:02;0.67;;;0.50;;
13114;SDS011;6623;52.120;8.660;2024-01-15T07:46:28;0.83;;;0.67;;
13114;SDS011;6623;52.120;8.660;2024-01-15T07:48:53;1.27;;;0.70;;
13114;SDS011;6623;52.120;8.660;2024-01-15T07:51:22;1.13;;;0.70;;
13114;SDS011;6623;52.120;8.660;2024-01-15T07:53:48;1.27;;;0.70;;
13114;SDS011;6623;52.120;8.660;2024-01-15T07:56:14;0.80;;;0.60;;
13114;SDS011;6623;52.120;8.660;2024-01-15T07:58:40;0.73;;;0.60;;
13114;SDS011;6623;52.120;8.660;2024-01-15T08:01:05;0.77;;;0.60;;
13114;SDS011;6623;52.120;8.660;2024-01-15T08:03:31;0.90;;;0.60;;
13114;SDS011;6623;52.120;8.660;2024-01-15T08:05:56;1.03;;;0.77;;
13114;SDS011;6623;52.120;8.660;2024-01-15T08:08:24;1.80;;;0.80;;
13114;SDS011;6623;52.120;8.660;2024-01-15T08:10:51;0.70;;;0.70;;
13114;SDS011;6623;52.120;8.660;2024-01-15T08:13:17;1.43;;;0.80;;
13114;SDS011;6623;52.120;8.660;2024-01-15T08:15:43;1.10;;;0.60;;
13114;SDS011;6623;52.120;8.660;2024-01-15T08:18:09;1.40;;;0.73;;
13114;SDS011;6623;52.120;8.660;2024-01-15T08:20:34;1.20;;;0.70;;
13114;SDS011;6623;52.120;8.660;2024-01-15T08:23:00;1.47;;;0.77;;
13114;SDS011;6623;52.120;8.660;2024-01-15T08:25:25;1.07;;;0.57;;
13114;SDS011;6623;52.120;8.660;2024-01-15T08:27:51;0.53;;;0.53;;
13114;SDS011;6623;52.120;8.660;2024-01-15T08:30:17;0.90;;;0.60;;
13114;SDS011;6623;52.120;8.660;2024-01-15T08:32:43;1.73;;;0.80;;
13114;SDS011;6623;52.120;8.660;2024-01-15T08:35:09;0.77;;;0.50;;
13114;SDS011;6623;52.120;8.660;2024-01-15T08:37:35;1.23;;;0.70;;
13114;SDS011;6623;52.120;8.660;2024-01-15T08:40:02;1.03;;;0.60;;
13114;SDS011;6623;52.120;8.660;2024-01-15T08:42:28;0.73;;;0.60;;
13114;SDS011;6623;52.120;8.660;2024-01-15T08:44:53;1.40;;;0.80;;
13114;SDS011;6623;52.120;8.660;2024-01-15T08:47:19;1.40;;;0.70;;
13114;SDS011;6623;52.120;8.660;2024-01-15T08:49:44;1.17;;;0.83;;
13114;SDS011;6623;52.120;8.660;2024-01-15T08:52:11;1.13;;;0.60;;
13114;SDS011;6623;52.120;8.660;2024-01-15T08:54:36;1.00;;;0.70;;
13114;SDS011;6623;52.120;8.660;2024-01-15T08:57:02;1.43;;;0.67;;
13114;SDS011;6623;52.120;8.660;2024-01-15T08:59:28;0.83;;;0.50;;
13114;SDS011;6623;52.120;8.660;2024-01-15T09:01:53;1.13;;;0.60;;
13114;SDS011;6623;52.120;8.660;2024-01-15T09:04:19;1.00;;;0.60;;
13114;SDS011;6623;52.120;8.660;2024-01-15T09:06:47;0.70;;;0.50;;
13114;SDS011;6623;52.120;8.660;2024-01-15T09:09:13;0.40;;;0.40;;
13114;SDS011;6623;52.120;8.660;2024-01-15T09:11:41;1.50;;;0.73;;
13114;SDS011;6623;52.120;8.660;2024-01-15T09:14:07;0.87;;;0.53;;
13114;SDS011;6623;52.120;8.660;2024-01-15T09:16:33;0.90;;;0.73;;
13114;SDS011;6623;52.120;8.660;2024-01-15T09:18:59;0.90;;;0.60;;
13114;SDS011;6623;52.120;8.660;2024-01-15T09:21:24;0.43;;;0.40;;
13114;SDS011;6623;52.120;8.660;2024-01-15T09:23:50;1.10;;;0.70;;
13114;SDS011;6623;52.120;8.660;2024-01-15T09:26:16;1.07;;;0.67;;
13114;SDS011;6623;52.120;8.660;2024-01-15T09:28:42;1.73;;;0.60;;
13114;SDS011;6623;52.120;8.660;2024-01-15T09:31:07;1.00;;;0.63;;
13114;SDS011;6623;52.120;8.660;2024-01-15T09:33:33;0.70;;;0.60;;
13114;SDS011;6623;52.120;8.660;2024-01-15T09:36:02;0.70;;;0.43;;
13114;SDS011;6623;52.120;8.660;2024-01-15T09:38:31;0.43;;;0.43;;
13114;SDS011;6623;52.120;8.660;2024-01-15T09:40:56;0.90;;;0.60;;
13114;SDS011;6623;52.120;8.660;2024-01-15T09:43:22;0.40;;;0.40;;
13114;SDS011;6623;52.120;8.660;2024-01-15T09:45:49;0.77;;;0.67;;
13114;SDS011;6623;52.120;8.660;2024-01-15T09:48:15;0.57;;;0.47;;
13114;SDS011;6623;52.120;8.660;2024-01-15T09:50:42;1.13;;;0.50;;
13114;SDS011;6623;52.120;8.660;2024-01-15T09:53:10;0.93;;;0.50;;
13114;SDS011;6623;52.120;8.660;2024-01-15T09:55:38;0.50;;;0.50;;
13114;SDS011;6623;52.120;8.660;2024-01-15T09:58:04;1.33;;;0.60;;
13114;SDS011;6623;52.120;8.660;2024-01-15T10:00:30;0.77;;;0.60;;
13114;SDS011;6623;52.120;8.660;2024-01-15T10:02:57;1.00;;;0.60;;
13114;SDS011;6623;52.120;8.660;2024-01-15T10:05:25;0.57;;;0.50;;
13114;SDS011;6623;52.120;8.660;2024-01-15T10:07:51;0.70;;;0.50;;
13114;SDS011;6623;52.120;8.660;2024-01-15T10:10:19;0.63;;;0.50;;
13114;SDS011;6623;52.120;8.660;2024-01-15T10:12:46;0.80;;;0.50;;
13114;SDS011;6623;52.120;8.660;2024-01-15T10:15:12;0.63;;;0.50;;
13114;SDS011;6623;52.120;8.660;2024-01-15T10:17:38;1.13;;;0.60;;
13114;SDS011;6623;52.120;8.660;2024-01-15T10:20:10;0.70;;;0.50;;
13114;SDS011;6623;52.120;8.660;2024-01-15T10:22:39;1.00;;;0.60;;
13114;SDS011;6623;52.120;8.660;2024-01-15T10:25:14;0.60;;;0.40;;
13114;SDS011;6623;52.120;8.660;2024-01-15T10:27:40;1.63;;;0.50;;
13114;SDS011;6623;52.120;8.660;2024-01-15T10:30:07;0.43;;;0.43;;
13114;SDS011;6623;52.120;8.660;2024-01-15T10:32:33;0.60;;;0.60;;
13114;SDS011;6623;52.120;8.660;2024-01-15T10:34:58;0.90;;;0.60;;
13114;SDS011;6623;52.120;8.660;2024-01-15T10:37:24;0.83;;;0.50;;
13114;SDS011;6623;52.120;8.660;2024-01-15T10:39:50;0.60;;;0.50;;
13114;SDS011;6623;52.120;8.660;2024-01-15T10:42:16;0.70;;;0.50;;
13114;SDS011;6623;52.120;8.660;2024-01-15T10:44:43;0.93;;;0.60;;
13114;SDS011;6623;52.120;8.660;2024-01-15T10:47:09;1.30;;;0.60;;
13114;SDS011;6623;52.120;8.660;2024-01-15T10:49:35;0.70;;;0.50;;
13114;SDS011;6623;52.120;8.660;2024-01-15T10:52:02;0.40;;;0.30;;
13114;SDS011;6623;52.120;8.660;2024-01-15T10:54:28;0.47;;;0.40;;
13114;SDS011;6623;52.120;8.660;2024-01-15T10:56:55;0.63;;;0.50;;
13114;SDS011;6623;52.120;8.660;2024-01-15T10:59:21;0.50;;;0.50;;
13114;SDS011;6623;52.120;8.660;2024-01-15T11:01:47;1.20;;;0.60;;
13114;SDS011;6623;52.120;8.660;2024-01-15T11:04:22;1.20;;;0.50;;
13114;SDS011;6623;52.120;8.660;2024-01-15T11:06:52;0.73;;;0.50;;
13114;SDS011;6623;52.120;8.660;2024-01-15T11:09:18;0.60;;;0.50;;
13114;SDS011;6623;52.120;8.660;2024-01-15T11:11:45;0.87;;;0.50;;
13114;SDS011;6623;52.120;8.660;2024-01-15T11:14:33;0.70;;;0.60;;
13114;SDS011;6623;52.120;8.660;2024-01-15T11:17:04;2.23;;;0.50;;
13114;SDS011;6623;52.120;8.660;2024-01-15T11:19:43;2.00;;;0.70;;
13114;SDS011;6623;52.120;8.660;2024-01-15T11:24:54;2.70;;;0.70;;
13114;SDS011;6623;52.120;8.660;2024-01-15T11:27:39;1.20;;;0.67;;
13114;SDS011;6623;52.120;8.660;2024-01-15T11:30:04;1.03;;;0.70;;
13114;SDS011;6623;52.120;8.660;2024-01-15T11:32:36;0.90;;;0.60;;
13114;SDS011;6623;52.120;8.660;2024-01-15T11:35:02;1.00;;;0.67;;
13114;SDS011;6623;52.120;8.660;2024-01-15T11:38:13;0.90;;;0.60;;
13114;SDS011;6623;52.120;8.660;2024-01-15T11:40:36;2.23;;;0.97;;
13114;SDS011;6623;52.120;8.660;2024-01-15T11:43:03;1.77;;;0.60;;
13114;SDS011;6623;52.120;8.660;2024-01-15T11:45:30;1.33;;;0.70;;
13114;SDS011;6623;52.120;8.660;2024-01-15T11:48:11;2.33;;;0.63;;
13114;SDS011;6623;52.120;8.660;2024-01-15T11:50:48;2.03;;;0.70;;
13114;SDS011;6623;52.120;8.660;2024-01-15T11:56:01;1.30;;;0.80;;
13114;SDS011;6623;52.120;8.660;2024-01-15T11:58:28;1.63;;;1.10;;
13114;SDS011;6623;52.120;8.660;2024-01-15T12:00:54;2.10;;;0.70;;
13114;SDS011;6623;52.120;8.660;2024-01-15T12:03:20;2.27;;;0.77;;
13114;SDS011;6623;52.120;8.660;2024-01-15T12:05:47;1.40;;;0.70;;
13114;SDS011;6623;52.120;8.660;2024-01-15T12:08:13;2.17;;;0.70;;
13114;SDS011;6623;52.120;8.660;2024-01-15T12:10:39;2.87;;;0.80;;
13114;SDS011;6623;52.120;8.660;2024-01-15T12:13:12;0.80;;;0.50;;
13114;SDS011;6623;52.120;8.660;2024-01-15T12:15:39;1.20;;;0.80;;
13114;SDS011;6623;52.120;8.660;2024-01-15T12:18:06;0.60;;;0.60;;
13114;SDS011;6623;52.120;8.660;2024-01-15T12:20:33;1.23;;;0.70;;
13114;SDS011;6623;52.120;8.660;2024-01-15T12:22:59;0.93;;;0.70;;
13114;SDS011;6623;52.120;8.660;2024-01-15T12:25:25;1.30;;;0.80;;
13114;SDS011;6623;52.120;8.660;2024-01-15T12:27:52;2.07;;;0.60;;
13114;SDS011;6623;52.120;8.660;2024-01-15T12:30:19;1.20;;;0.67;;
13114;SDS011;6623;52.120;8.660;2024-01-15T12:32:44;0.97;;;0.70;;
13114;SDS011;6623;52.120;8.660;2024-01-15T12:35:11;1.27;;;0.70;;
13114;SDS011;6623;52.120;8.660;2024-01-15T12:37:41;1.30;;;0.80;;
13114;SDS011;6623;52.120;8.660;2024-01-15T12:40:08;1.37;;;0.80;;
13114;SDS011;6623;52.120;8.660;2024-01-15T12:42:44;1.17;;;0.70;;
13114;SDS011;6623;52.120;8.660;2024-01-15T12:45:09;1.30;;;0.80;;
13114;SDS011;6623;52.120;8.660;2024-01-15T12:47:36;1.77;;;0.80;;
13114;SDS011;6623;52.120;8.660;2024-01-15T12:50:02;1.67;;;0.80;;
13114;SDS011;6623;52.120;8.660;2024-01-15T12:52:35;1.53;;;0.80;;
13114;SDS011;6623;52.120;8.660;2024-01-15T12:55:02;0.83;;;0.70;;
13114;SDS011;6623;52.120;8.660;2024-01-15T12:57:32;2.50;;;0.93;;
13114;SDS011;6623;52.120;8.660;2024-01-15T12:59:59;1.50;;;0.80;;
13114;SDS011;6623;52.120;8.660;2024-01-15T13:02:24;5.57;;;0.70;;
13114;SDS011;6623;52.120;8.660;2024-01-15T13:04:50;1.73;;;0.80;;
13114;SDS011;6623;52.120;8.660;2024-01-15T13:07:15;1.27;;;0.90;;
13114;SDS011;6623;52.120;8.660;2024-01-15T13:09:41;1.80;;;0.70;;
13114;SDS011;6623;52.120;8.660;2024-01-15T13:12:08;1.23;;;0.93;;
13114;SDS011;6623;52.120;8.660;2024-01-15T13:14:33;1.00;;;0.80;;
13114;SDS011;6623;52.120;8.660;2024-01-15T13:16:59;1.13;;;0.73;;
13114;SDS011;6623;52.120;8.660;2024-01-15T13:19:24;1.40;;;1.00;;
13114;SDS011;6623;52.120;8.660;2024-01-15T13:21:50;1.57;;;0.70;;
13114;SDS011;6623;52.120;8.660;2024-01-15T13:24:16;1.30;;;0.70;;
13114;SDS011;6623;52.120;8.660;2024-01-15T13:26:42;1.30;;;0.97;;
13114;SDS011;6623;52.120;8.660;2024-01-15T13:29:08;1.40;;;0.80;;
13114;SDS011;6623;52.120;8.660;2024-01-15T13:31:33;0.90;;;0.77;;
13114;SDS011;6623;52.120;8.660;2024-01-15T13:33:59;1.37;;;0.97;;
13114;SDS011;6623;52.120;8.660;2024-01-15T13:36:25;1.83;;;1.00;;
13114;SDS011;6623;52.120;8.660;2024-01-15T13:38:51;1.30;;;0.77;;
13114;SDS011;6623;52.120;8.660;2024-01-15T13:41:18;1.17;;;0.90;;
13114;SDS011;6623;52.120;8.660;2024-01-15T13:43:48;1.80;;;0.87;;
13114;SDS011;6623;52.120;8.660;2024-01-15T13:46:15;0.73;;;0.70;;
13114;SDS011;6623;52.120;8.660;2024-01-15T13:48:42;0.80;;;0.80;;
13114;SDS011;6623;52.120;8.660;2024-01-15T13:51:08;0.87;;;0.77;;
13114;SDS011;6623;52.120;8.660;2024-01-15T13:53:33;1.80;;;1.00;;
13114;SDS011;6623;52.120;8.660;2024-01-15T13:55:59;1.77;;;0.90;;
13114;SDS011;6623;52.120;8.660;2024-01-15T13:58:24;1.80;;;1.10;;
13114;SDS011;6623;52.120;8.660;2024-01-15T14:00:50;1.10;;;0.83;;
13114;SDS011;6623;52.120;8.660;2024-01-15T14:03:17;0.93;;;0.80;;
13114;SDS011;6623;52.120;8.660;2024-01-15T14:05:42;1.37;;;1.00;;
13114;SDS011;6623;52.120;8.660;2024-01-15T14:08:08;1.20;;;0.90;;
13114;SDS011;6623;52.120;8.660;2024-01-15T14:10:33;1.43;;;0.90;;
13114;SDS011;6623;52.120;8.660;2024-01-15T14:12:59;0.83;;;0.70;;
13114;SDS011;6623;52.120;8.660;2024-01-15T14:15:24;1.40;;;0.87;;
13114;SDS011;6623;52.120;8.660;2024-01-15T14:17:50;1.37;;;0.80;;
13114;SDS011;6623;52.120;8.660;2024-01-15T14:20:16;0.70;;;0.70;;
13114;SDS011;6623;52.120;8.660;2024-01-15T14:22:42;0.97;;;0.80;;
13114;SDS011;6623;52.120;8.660;2024-01-15T14:25:08;0.70;;;0.70;;
13114;SDS011;6623;52.120;8.660;2024-01-15T14:27:33;1.90;;;0.83;;
13114;SDS011;6623;52.120;8.660;2024-01-15T14:29:58;1.33;;;0.80;;
13114;SDS011;6623;52.120;8.660;2024-01-15T14:32:24;1.37;;;1.00;;
13114;SDS011;6623;52.120;8.660;2024-01-15T14:34:49;1.10;;;0.80;;
13114;SDS011;6623;52.120;8.660;2024-01-15T14:37:15;1.07;;;0.70;;
13114;SDS011;6623;52.120;8.660;2024-01-15T14:39:40;1.47;;;0.80;;
13114;SDS011;6623;52.120;8.660;2024-01-15T14:42:06;1.17;;;0.80;;
13114;SDS011;6623;52.120;8.660;2024-01-15T14:44:32;1.20;;;0.80;;
13114;SDS011;6623;52.120;8.660;2024-01-15T14:47:00;0.93;;;0.60;;
13114;SDS011;6623;52.120;8.660;2024-01-15T14:49:25;1.40;;;0.90;;
13114;SDS011;6623;52.120;8.660;2024-01-15T14:51:51;1.63;;;0.90;;
13114;SDS011;6623;52.120;8.660;2024-01-15T14:54:16;0.70;;;0.70;;
13114;SDS011;6623;52.120;8.660;2024-01-15T14:56:42;1.00;;;0.80;;
13114;SDS011;6623;52.120;8.660;2024-01-15T14:59:10;1.10;;;0.80;;
13114;SDS011;6623;52.120;8.660;2024-01-15T15:01:36;1.10;;;0.80;;
13114;SDS011;6623;52.120;8.660;2024-01-15T15:04:01;1.67;;;0.80;;